CDT,Max TemperatureF,Mean TemperatureF,Min TemperatureF,Max Dew PointF,MeanDew PointF,Min DewpointF,Max Humidity, Mean Humidity, Min Humidity, Max Sea Level PressureIn, Mean Sea Level PressureIn, Min Sea Level PressureIn, Max VisibilityMiles, Mean VisibilityMiles, Min VisibilityMiles, Max Wind SpeedMPH, Mean Wind SpeedMPH, Max Gust SpeedMPH,PrecipitationIn, CloudCover, Events, WindDirDegrees
2013-9-1,76,68,61,67,61,56,96,79,55,29.89,29.80,29.76,10,10,5,15,5,20,0.28,4,Rain-Thunderstorm,267
2013-9-2,61,55,48,58,50,46,93,78,63,30.04,29.99,29.89,10,10,10,12,6,18,0.00,4,,336
2013-9-3,72,55,38,50,46,38,100,71,40,30.11,30.05,30.00,10,9,0,10,3,16,0.00,1,Fog,268
2013-9-4,76,62,49,63,56,48,98,77,60,30.18,30.09,30.03,10,10,7,7,3,,0.00,0,,308
2013-9-5,72,61,50,57,49,44,97,70,39,30.32,30.25,30.18,10,10,5,10,6,,0.00,2,,99
2013-9-6,85,67,50,62,54,43,83,63,45,30.23,30.10,29.96,10,10,10,15,5,23,0.00,2,,198
2013-9-7,85,74,64,68,63,60,86,71,52,30.07,29.95,29.91,10,10,10,14,5,25,0.00,4,,300
2013-9-8,70,62,54,58,53,50,88,71,51,30.14,30.08,30.00,10,10,10,16,10,22,0.00,3,Rain,82
2013-9-9,88,74,60,71,64,56,91,73,55,29.99,29.84,29.72,10,10,7,18,6,23,0.00,4,,143
2013-9-10,86,76,66,68,64,62,96,66,48,29.97,29.89,29.77,10,10,10,12,7,20,0.09,3,Rain-Thunderstorm,270
2013-9-11,82,69,55,66,59,52,96,72,40,30.05,30.00,29.96,10,10,10,13,5,22,0.01,1,Rain,261
2013-9-12,68,57,47,53,48,40,95,72,47,30.20,30.08,29.99,10,10,10,17,5,24,0.00,3,,339
2013-9-13,62,49,37,43,38,34,99,70,40,30.27,30.21,30.15,10,10,10,10,3,20,0.00,0,,356
2013-9-14,68,52,35,49,41,34,97,64,38,30.16,30.08,29.98,10,10,10,13,3,21,0.00,1,Rain,215
2013-9-15,62,53,43,53,50,38,99,86,69,30.31,30.09,29.97,10,9,3,15,4,21,0.55,8,Rain,38
2013-9-16,59,46,33,41,37,32,99,75,40,30.44,30.38,30.32,10,10,10,9,4,16,0.00,0,,70
2013-9-17,64,48,31,53,44,30,99,79,50,30.36,30.24,30.09,10,10,7,14,4,18,0.01,3,Rain,146
2013-9-18,76,64,54,64,59,53,97,85,66,30.09,29.95,29.84,10,8,2,12,6,,0.14,6,Rain-Thunderstorm,161
2013-9-19,81,72,63,69,66,62,98,88,62,29.86,29.80,29.69,10,8,2,16,7,28,0.55,4,Rain-Thunderstorm,189
2013-9-20,65,58,51,64,57,47,98,86,68,29.85,29.77,29.71,10,9,7,14,7,25,0.02,7,Rain,268
2013-9-21,55,48,40,46,42,38,95,79,60,29.99,29.91,29.85,10,10,10,10,6,,0.00,4,,308
2013-9-22,58,44,30,41,37,30,99,76,46,30.10,30.05,30.00,10,10,10,8,2,,0.00,0,,105
2013-9-23,64,50,36,48,43,36,98,79,55,30.14,30.08,30.05,10,10,7,12,5,18,0.00,0,,119
2013-9-24,68,54,39,50,46,38,100,81,46,30.08,30.04,29.99,10,7,0,8,4,,0.00,2,Fog,97
2013-9-25,65,50,36,49,45,35,99,81,52,30.05,30.02,29.98,10,8,0,9,2,,0.00,1,Fog,101
2013-9-26,72,54,36,53,48,36,100,79,44,30.10,30.06,30.02,10,7,0,13,4,18,0.00,3,Fog,128
2013-9-27,78,61,44,52,48,43,96,65,34,30.13,30.08,30.02,10,10,10,15,5,22,0.00,0,,144
2013-9-28,76,62,49,63,51,44,96,74,49,30.03,29.92,29.78,10,9,2,23,8,39,0.17,4,Rain,178
2013-9-29,67,53,39,49,44,39,100,75,40,30.05,30.00,29.95,10,9,0,14,5,18,0.00,1,Fog,218
2013-9-30,70,56,43,46,42,41,94,63,35,29.97,29.87,29.78,10,10,10,22,6,31,0.00,0,,181